createdAt,value
2018-01-20T00:00:12.081Z,9.00
2018-01-20T00:02:40.341Z,4.43
2018-01-20T00:05:14.981Z,2.70
2018-01-20T00:07:43.226Z,5.93
2018-01-20T00:10:22.507Z,2.33
2018-01-20T00:12:51.356Z,2.07
2018-01-20T00:15:19.627Z,4.17
2018-01-20T00:17:47.226Z,3.97
2018-01-20T00:20:16.389Z,2.10
2018-01-20T00:22:44.653Z,3.33
2018-01-20T00:25:16.690Z,1.90
2018-01-20T00:27:44.984Z,3.40
2018-01-20T00:30:16.846Z,7.90
2018-01-20T00:32:45.088Z,1.53
2018-01-20T00:35:13.634Z,3.72
2018-01-20T00:37:41.897Z,2.13
2018-01-20T00:40:16.013Z,4.83
2018-01-20T00:42:44.310Z,4.33
2018-01-20T00:45:12.569Z,3.87
2018-01-20T00:47:40.825Z,1.33
2018-01-20T00:50:15.294Z,2.50
2018-01-20T00:52:43.556Z,2.40
2018-01-20T00:55:15.829Z,7.10
2018-01-20T00:57:44.089Z,2.57
2018-01-20T01:00:16.136Z,2.50
2018-01-20T01:02:44.555Z,4.47
2018-01-20T01:05:15.290Z,2.40
2018-01-20T01:07:43.541Z,3.47
2018-01-20T01:10:16.094Z,3.80
2018-01-20T01:12:44.341Z,3.73
2018-01-20T01:15:15.419Z,2.83
2018-01-20T01:17:43.674Z,1.63
2018-01-20T01:20:14.122Z,9.20
2018-01-20T01:22:43.311Z,1.47
2018-01-20T01:25:11.777Z,2.07
2018-01-20T01:27:40.025Z,3.73
2018-01-20T01:30:15.519Z,5.73
2018-01-20T01:32:43.773Z,2.77
2018-01-20T01:35:15.693Z,6.00
2018-01-20T01:37:44.649Z,1.80
2018-01-20T01:40:15.730Z,3.60
2018-01-20T01:42:43.984Z,2.60
2018-01-20T01:45:12.237Z,2.27
2018-01-20T01:47:40.481Z,5.73
2018-01-20T01:50:15.078Z,3.10
2018-01-20T01:52:43.337Z,4.73
2018-01-20T01:55:16.232Z,6.73
2018-01-20T01:57:44.511Z,1.70
2018-01-20T02:00:15.401Z,2.03
2018-01-20T02:02:43.662Z,4.30
2018-01-20T02:05:16.137Z,3.63
2018-01-20T02:07:44.664Z,6.43
2018-01-20T02:10:16.369Z,3.57
2018-01-20T02:12:44.651Z,2.07
2018-01-20T02:15:12.902Z,3.40
2018-01-20T02:17:41.297Z,11.20
2018-01-20T02:20:15.097Z,5.97
2018-01-20T02:22:43.361Z,3.23
2018-01-20T02:25:15.497Z,6.07
2018-01-20T02:27:43.751Z,3.30
2018-01-20T02:30:14.790Z,7.03
2018-01-20T02:32:44.440Z,4.77
2018-01-20T02:35:12.681Z,1.93
2018-01-20T02:37:40.955Z,5.70
2018-01-20T02:40:15.814Z,5.63
2018-01-20T02:42:44.090Z,1.90
2018-01-20T02:45:14.892Z,3.23
2018-01-20T02:47:43.134Z,5.27
2018-01-20T02:50:16.361Z,2.50
2018-01-20T02:52:44.618Z,2.30
2018-01-20T02:55:15.775Z,3.13
2018-01-20T02:57:44.014Z,4.33
2018-01-20T03:00:16.320Z,2.27
2018-01-20T03:02:44.565Z,2.47
2018-01-20T03:05:12.855Z,3.00
2018-01-20T03:07:41.107Z,7.67
2018-01-20T03:10:15.694Z,2.47
2018-01-20T03:12:43.941Z,7.37
2018-01-20T03:15:15.673Z,4.17
2018-01-20T03:17:44.050Z,9.67
2018-01-20T03:20:15.496Z,2.13
2018-01-20T03:22:43.753Z,1.57
2018-01-20T03:25:14.940Z,2.40
2018-01-20T03:27:43.196Z,2.10
2018-01-20T03:30:11.534Z,4.63
2018-01-20T03:32:39.801Z,2.90
2018-01-20T03:35:09.626Z,2.57
2018-01-20T03:37:37.893Z,4.17
2018-01-20T03:40:15.898Z,4.30
2018-01-20T03:42:44.161Z,2.00
2018-01-20T03:45:14.364Z,2.50
2018-01-20T03:47:42.609Z,5.47
2018-01-20T03:50:15.578Z,1.87
2018-01-20T03:52:43.818Z,2.60
2018-01-20T03:55:15.741Z,2.80
2018-01-20T03:57:43.733Z,3.03
2018-01-20T04:00:11.970Z,1.80
2018-01-20T04:02:40.221Z,1.63
2018-01-20T04:05:14.536Z,1.60
2018-01-20T04:07:42.798Z,2.10
2018-01-20T04:10:16.466Z,4.13
2018-01-20T04:12:44.733Z,1.20
2018-01-20T04:15:16.237Z,3.73
2018-01-20T04:17:44.482Z,2.90
2018-01-20T04:20:15.657Z,5.13
2018-01-20T04:22:50.464Z,1.37
2018-01-20T04:25:18.713Z,3.17
2018-01-20T04:27:46.970Z,0.80
2018-01-20T04:30:16.985Z,3.70
2018-01-20T04:32:45.122Z,1.63
2018-01-20T04:35:13.383Z,1.30
2018-01-20T04:37:41.644Z,4.10
2018-01-20T04:40:11.681Z,0.90
2018-01-20T04:42:39.930Z,2.20
2018-01-20T04:45:17.811Z,5.03
2018-01-20T04:47:46.077Z,2.43
2018-01-20T04:50:14.324Z,3.97
2018-01-20T04:52:42.561Z,1.50
2018-01-20T04:55:15.798Z,1.83
2018-01-20T04:57:46.648Z,3.70
2018-01-20T05:00:15.773Z,2.77
2018-01-20T05:02:44.033Z,2.23
2018-01-20T05:05:13.065Z,5.40
2018-01-20T05:07:41.305Z,1.33
2018-01-20T05:10:10.269Z,1.13
2018-01-20T05:12:38.507Z,1.43
2018-01-20T05:15:15.380Z,1.50
2018-01-20T05:17:43.645Z,13.83
2018-01-20T05:20:15.896Z,1.73
2018-01-20T05:22:45.029Z,2.80
2018-01-20T05:25:13.283Z,2.00
2018-01-20T05:27:41.525Z,2.40
2018-01-20T05:30:10.945Z,6.40
2018-01-20T05:32:39.205Z,24.47
2018-01-20T05:35:10.113Z,6.23
2018-01-20T05:37:38.365Z,3.80
2018-01-20T05:40:12.429Z,8.83
2018-01-20T05:42:40.691Z,12.27
2018-01-20T05:45:15.050Z,9.50
2018-01-20T05:47:43.459Z,3.00
2018-01-20T05:50:11.791Z,5.30
2018-01-20T05:52:40.243Z,22.17
2018-01-20T05:55:10.889Z,8.20
2018-01-20T05:57:39.637Z,2.60
2018-01-20T06:00:11.188Z,2.70
2018-01-20T06:02:39.445Z,2.40
2018-01-20T06:05:10.658Z,2.63
2018-01-20T06:07:38.713Z,2.57
2018-01-20T06:10:10.525Z,4.10
2018-01-20T06:12:38.801Z,2.93
2018-01-20T06:15:11.454Z,3.33
2018-01-20T06:17:39.704Z,3.00
2018-01-20T06:20:11.761Z,3.70
2018-01-20T06:22:40.010Z,3.13
2018-01-20T06:25:11.598Z,3.53
2018-01-20T06:27:39.869Z,2.40
2018-01-20T06:30:13.213Z,4.23
2018-01-20T06:32:41.478Z,5.43
2018-01-20T06:35:15.861Z,4.80
2018-01-20T06:37:44.132Z,5.00
2018-01-20T06:40:15.984Z,6.80
2018-01-20T06:42:44.233Z,6.90
2018-01-20T06:45:12.379Z,6.53
2018-01-20T06:47:40.645Z,6.27
2018-01-20T06:50:12.412Z,6.00
2018-01-20T06:52:40.657Z,5.70
2018-01-20T06:55:09.617Z,4.87
2018-01-20T06:57:37.865Z,4.63
2018-01-20T07:00:08.373Z,3.60
2018-01-20T07:02:36.649Z,5.03
2018-01-20T07:05:09.794Z,5.67
2018-01-20T07:07:38.039Z,5.20
2018-01-20T07:10:11.485Z,3.07
2018-01-20T07:12:39.537Z,3.73
2018-01-20T07:15:15.830Z,3.90
2018-01-20T07:17:43.894Z,3.00
2018-01-20T07:20:15.741Z,3.47
2018-01-20T07:22:43.973Z,2.70
2018-01-20T07:25:12.260Z,4.10
2018-01-20T07:27:40.517Z,4.43
2018-01-20T07:30:15.932Z,2.90
2018-01-20T07:32:44.189Z,4.30
2018-01-20T07:35:14.034Z,2.50
2018-01-20T07:37:43.006Z,31.77
2018-01-20T07:40:12.797Z,3.53
2018-01-20T07:42:41.073Z,2.47
2018-01-20T07:45:15.621Z,2.77
2018-01-20T07:47:43.869Z,2.60
2018-01-20T07:50:12.119Z,2.43
2018-01-20T07:52:40.380Z,3.67
2018-01-20T07:55:08.621Z,2.53
2018-01-20T07:57:36.898Z,2.83
2018-01-20T08:00:09.761Z,3.03
2018-01-20T08:02:38.050Z,6.27
2018-01-20T08:05:09.204Z,6.53
2018-01-20T08:07:38.315Z,2.77
2018-01-20T08:10:10.111Z,3.13
2018-01-20T08:12:38.376Z,3.90
2018-01-20T08:15:09.292Z,2.60
2018-01-20T08:17:37.540Z,3.40
2018-01-20T08:20:08.221Z,2.70
2018-01-20T08:22:36.493Z,2.20
2018-01-20T08:25:04.762Z,3.13
2018-01-20T08:27:34.405Z,2.57
2018-01-20T08:30:03.353Z,2.90
2018-01-20T08:32:31.593Z,3.40
2018-01-20T08:34:59.855Z,3.43
2018-01-20T08:37:28.105Z,3.20
2018-01-20T08:39:56.355Z,3.10
2018-01-20T08:42:24.657Z,5.93
2018-01-20T08:44:52.909Z,4.50
2018-01-20T08:47:21.146Z,4.07
2018-01-20T08:49:50.062Z,4.50
2018-01-20T08:52:18.305Z,3.27
2018-01-20T08:54:46.565Z,4.90
2018-01-20T08:57:14.805Z,3.63
2018-01-20T08:59:43.039Z,2.13
2018-01-20T09:02:11.282Z,2.13
2018-01-20T09:04:39.541Z,1.50
2018-01-20T09:07:08.137Z,1.00
2018-01-20T09:09:36.401Z,1.00
2018-01-20T09:12:04.641Z,4.00
2018-01-20T09:14:33.332Z,1.57
2018-01-20T09:17:01.632Z,1.43
2018-01-20T09:19:30.024Z,2.67
2018-01-20T09:21:58.279Z,1.20
2018-01-20T09:24:26.257Z,2.03
2018-01-20T09:26:54.530Z,1.67
2018-01-20T09:29:22.814Z,1.27
2018-01-20T09:31:51.074Z,3.53
2018-01-20T09:34:19.329Z,5.17
2018-01-20T09:36:47.577Z,2.07
2018-01-20T09:39:15.830Z,1.30
2018-01-20T09:41:44.073Z,2.87
2018-01-20T09:44:12.320Z,1.50
2018-01-20T09:46:40.557Z,1.63
2018-01-20T09:49:08.808Z,1.37
2018-01-20T09:51:37.047Z,3.53
2018-01-20T09:54:05.881Z,1.23
2018-01-20T09:56:34.133Z,0.90
2018-01-20T09:59:02.197Z,0.90
2018-01-20T10:01:30.762Z,2.93
2018-01-20T10:03:58.705Z,1.00
2018-01-20T10:06:26.962Z,2.77
2018-01-20T10:08:55.217Z,1.10
2018-01-20T10:11:23.500Z,1.17
2018-01-20T10:13:51.749Z,1.50
2018-01-20T10:16:21.497Z,0.93
2018-01-20T10:18:49.765Z,5.23
2018-01-20T10:21:18.256Z,0.80
2018-01-20T10:23:46.496Z,0.93
2018-01-20T10:26:14.748Z,1.27
2018-01-20T10:28:43.232Z,2.30
2018-01-20T10:31:11.474Z,0.80
2018-01-20T10:33:40.577Z,0.87
2018-01-20T10:36:08.876Z,0.87
2018-01-20T10:38:37.121Z,0.63
2018-01-20T10:41:05.185Z,0.70
2018-01-20T10:43:33.485Z,2.10
2018-01-20T10:46:01.728Z,0.70
2018-01-20T10:48:29.986Z,0.70
2018-01-20T10:50:58.244Z,0.70
2018-01-20T10:53:26.495Z,0.70
2018-01-20T10:55:54.756Z,0.60
2018-01-20T10:58:23.369Z,0.80
2018-01-20T11:00:52.269Z,0.90
2018-01-20T11:03:21.126Z,0.87
2018-01-20T11:05:49.385Z,0.70
2018-01-20T11:08:17.666Z,1.03
2018-01-20T11:10:45.905Z,0.97
2018-01-20T11:13:14.169Z,1.30
2018-01-20T11:15:42.430Z,1.70
2018-01-20T11:18:10.697Z,1.17
2018-01-20T11:20:38.954Z,0.50
2018-01-20T11:23:07.193Z,0.80
2018-01-20T11:25:35.433Z,0.70
2018-01-20T11:28:03.681Z,1.73
2018-01-20T11:30:31.945Z,0.63
2018-01-20T11:33:00.200Z,1.93
2018-01-20T11:35:28.449Z,0.70
2018-01-20T11:37:56.504Z,0.90
2018-01-20T11:40:24.645Z,3.97
2018-01-20T11:42:52.920Z,1.13
2018-01-20T11:45:21.188Z,6.80
2018-01-20T11:47:49.427Z,1.80
2018-01-20T11:50:17.672Z,0.60
2018-01-20T11:52:45.933Z,0.40
2018-01-20T11:55:14.185Z,1.50
2018-01-20T11:57:43.041Z,1.13
2018-01-20T12:00:11.313Z,2.97
2018-01-20T12:02:39.589Z,0.60
2018-01-20T12:05:07.864Z,0.60
2018-01-20T12:07:36.122Z,0.53
2018-01-20T12:10:04.484Z,0.50
2018-01-20T12:12:32.717Z,0.50
2018-01-20T12:15:00.991Z,1.90
2018-01-20T12:17:29.230Z,4.13
2018-01-20T12:19:57.316Z,1.00
2018-01-20T12:22:25.374Z,5.17
2018-01-20T12:24:53.465Z,2.33
2018-01-20T12:27:21.544Z,3.33
2018-01-20T12:29:49.612Z,6.43
2018-01-20T12:32:17.682Z,1.73
2018-01-20T12:34:45.736Z,3.67
2018-01-20T12:37:13.844Z,0.87
2018-01-20T12:39:41.921Z,5.00
2018-01-20T12:42:09.989Z,1.20
2018-01-20T12:44:38.243Z,2.30
2018-01-20T12:47:06.313Z,2.90
2018-01-20T12:49:34.372Z,1.00
2018-01-20T12:52:02.418Z,1.13
2018-01-20T12:54:30.664Z,5.60
2018-01-20T12:56:58.911Z,0.93
2018-01-20T12:59:27.154Z,1.93
2018-01-20T13:01:55.398Z,2.13
2018-01-20T13:04:23.640Z,7.30
2018-01-20T13:06:51.881Z,0.70
2018-01-20T13:09:20.126Z,1.20
2018-01-20T13:11:48.392Z,1.10
2018-01-20T13:14:16.840Z,1.13
2018-01-20T13:16:45.096Z,0.70
2018-01-20T13:19:13.342Z,0.60
2018-01-20T13:21:41.640Z,2.63
2018-01-20T13:24:09.879Z,0.97
2018-01-20T13:26:37.947Z,0.53
2018-01-20T13:29:07.150Z,0.50
2018-01-20T13:31:35.409Z,0.77
2018-01-20T13:34:03.672Z,0.70
2018-01-20T13:36:31.941Z,0.50
2018-01-20T13:39:00.231Z,0.50
2018-01-20T13:41:28.489Z,0.40
2018-01-20T13:43:56.752Z,0.40
2018-01-20T13:46:25.017Z,1.90
2018-01-20T13:48:53.269Z,0.60
2018-01-20T13:51:21.513Z,0.67
2018-01-20T13:53:49.785Z,0.70
2018-01-20T13:56:18.021Z,2.57
2018-01-20T13:58:46.277Z,1.40
2018-01-20T14:01:14.524Z,0.77
2018-01-20T14:03:42.777Z,4.17
2018-01-20T14:06:11.037Z,6.13
2018-01-20T14:08:39.294Z,0.47
2018-01-20T14:11:07.548Z,0.70
2018-01-20T14:13:35.801Z,0.60
2018-01-20T14:16:04.059Z,0.60
2018-01-20T14:18:32.305Z,0.73
2018-01-20T14:21:00.545Z,0.67
2018-01-20T14:23:28.793Z,5.70
2018-01-20T14:25:57.049Z,0.50
2018-01-20T14:28:25.306Z,0.67
2018-01-20T14:30:53.559Z,0.40
2018-01-20T14:33:21.879Z,0.50
2018-01-20T14:35:50.122Z,2.47
2018-01-20T14:38:18.367Z,0.67
2018-01-20T14:40:46.458Z,1.37
2018-01-20T14:43:14.721Z,2.93
2018-01-20T14:45:42.993Z,0.63
2018-01-20T14:48:11.256Z,0.60
2018-01-20T14:50:39.497Z,0.50
2018-01-20T14:53:07.737Z,1.80
2018-01-20T14:55:35.992Z,1.73
2018-01-20T14:58:04.871Z,0.50
2018-01-20T15:00:33.605Z,0.50
2018-01-20T15:03:01.888Z,1.00
2018-01-20T15:05:30.418Z,0.60
2018-01-20T15:07:58.689Z,5.17
2018-01-20T15:10:26.966Z,0.73
2018-01-20T15:12:55.241Z,0.80
2018-01-20T15:15:23.501Z,0.70
2018-01-20T15:17:51.753Z,0.50
2018-01-20T15:20:20.006Z,0.60
2018-01-20T15:22:48.249Z,0.80
2018-01-20T15:25:16.509Z,0.50
2018-01-20T15:27:44.764Z,3.70
2018-01-20T15:30:13.025Z,0.50
2018-01-20T15:32:41.264Z,1.53
2018-01-20T15:35:09.529Z,0.67
2018-01-20T15:37:37.772Z,0.43
2018-01-20T15:40:06.065Z,6.43
2018-01-20T15:42:34.319Z,1.07
2018-01-20T15:45:02.579Z,0.90
2018-01-20T15:47:31.593Z,1.17
2018-01-20T15:49:59.834Z,0.93
2018-01-20T15:52:28.086Z,2.80
2018-01-20T15:54:56.352Z,0.90
2018-01-20T15:57:24.601Z,3.70
2018-01-20T15:59:52.660Z,2.43
2018-01-20T16:02:20.967Z,5.53
2018-01-20T16:04:50.241Z,9.23
2018-01-20T16:07:18.314Z,8.10
2018-01-20T16:09:46.374Z,8.37
2018-01-20T16:12:14.650Z,7.73
2018-01-20T16:14:42.907Z,11.60
2018-01-20T16:17:12.851Z,7.13
2018-01-20T16:19:41.291Z,9.97
2018-01-20T16:22:09.531Z,3.23
2018-01-20T16:24:37.801Z,5.07
2018-01-20T16:27:06.906Z,8.10
2018-01-20T16:29:35.154Z,6.90
2018-01-20T16:32:03.425Z,2.40
2018-01-20T16:34:31.676Z,4.20
2018-01-20T16:36:59.920Z,6.40
2018-01-20T16:39:28.447Z,3.80
2018-01-20T16:41:56.714Z,3.33
2018-01-20T16:44:25.962Z,51.50
2018-01-20T16:46:54.236Z,34.20
2018-01-20T16:49:23.306Z,27.83
2018-01-20T16:51:51.604Z,32.80
2018-01-20T16:54:20.392Z,21.70
2018-01-20T16:56:48.730Z,11.47
2018-01-20T16:59:16.981Z,11.23
2018-01-20T17:01:45.920Z,13.27
2018-01-20T17:04:14.210Z,13.70
2018-01-20T17:06:42.528Z,9.60
2018-01-20T17:09:10.982Z,11.97
2018-01-20T17:11:39.429Z,14.53
2018-01-20T17:14:07.681Z,8.50
2018-01-20T17:16:35.921Z,15.37
2018-01-20T17:19:04.181Z,13.03
2018-01-20T17:21:32.441Z,20.33
2018-01-20T17:24:00.705Z,26.40
2018-01-20T17:26:28.945Z,16.83
2018-01-20T17:28:57.204Z,21.27
2018-01-20T17:31:25.467Z,24.13
2018-01-20T17:33:53.793Z,18.73
2018-01-20T17:36:22.048Z,24.73
2018-01-20T17:38:50.314Z,19.70
2018-01-20T17:41:18.621Z,11.30
2018-01-20T17:43:46.878Z,17.73
2018-01-20T17:46:15.040Z,13.23
2018-01-20T17:48:43.302Z,12.80
2018-01-20T17:51:11.399Z,15.90
2018-01-20T17:53:39.466Z,17.60
2018-01-20T17:56:07.433Z,16.73
2018-01-20T17:58:36.322Z,17.20
2018-01-20T18:01:05.011Z,18.00
2018-01-20T18:03:33.276Z,22.63
2018-01-20T18:06:01.541Z,15.87
2018-01-20T18:08:30.719Z,15.83
2018-01-20T18:11:02.975Z,16.17
2018-01-20T18:13:31.997Z,17.10
2018-01-20T18:16:03.424Z,16.23
2018-01-20T18:18:33.602Z,15.90
2018-01-20T18:21:01.883Z,12.40
2018-01-20T18:23:30.214Z,12.10
2018-01-20T18:25:58.950Z,16.20
2018-01-20T18:28:27.235Z,10.13
2018-01-20T18:30:55.484Z,15.70
2018-01-20T18:33:23.755Z,16.13
2018-01-20T18:35:52.018Z,14.23
2018-01-20T18:38:20.291Z,12.00
2018-01-20T18:40:48.554Z,17.53
2018-01-20T18:43:16.793Z,12.40
2018-01-20T18:45:45.045Z,9.10
2018-01-20T18:48:13.302Z,13.07
2018-01-20T18:50:41.790Z,14.40
2018-01-20T18:53:10.037Z,13.23
2018-01-20T18:55:38.297Z,14.20
2018-01-20T18:58:06.579Z,10.37
2018-01-20T19:00:34.843Z,16.20
2018-01-20T19:03:03.724Z,11.70
2018-01-20T19:05:32.017Z,13.43
2018-01-20T19:08:00.458Z,14.13
2018-01-20T19:10:28.709Z,11.20
2018-01-20T19:12:56.957Z,11.30
2018-01-20T19:15:25.261Z,10.67
2018-01-20T19:17:53.665Z,9.80
2018-01-20T19:20:21.937Z,12.63
2018-01-20T19:22:50.202Z,16.87
2018-01-20T19:25:18.912Z,19.03
2018-01-20T19:27:47.250Z,19.00
2018-01-20T19:30:15.600Z,14.50
2018-01-20T19:32:43.861Z,15.87
2018-01-20T19:35:12.866Z,14.00
2018-01-20T19:37:41.137Z,11.53
2018-01-20T19:40:10.400Z,13.33
2018-01-20T19:42:38.682Z,13.00
2018-01-20T19:45:08.429Z,12.90
2018-01-20T19:47:36.682Z,13.30
2018-01-20T19:50:05.421Z,11.17
2018-01-20T19:52:33.679Z,11.37
2018-01-20T19:55:01.635Z,13.77
2018-01-20T19:57:29.880Z,9.73
2018-01-20T19:59:58.145Z,9.80
2018-01-20T20:02:26.402Z,15.17
2018-01-20T20:04:54.693Z,13.57
2018-01-20T20:07:22.966Z,18.13
2018-01-20T20:09:51.232Z,11.73
2018-01-20T20:12:19.474Z,14.50
2018-01-20T20:14:47.721Z,11.73
2018-01-20T20:17:15.997Z,11.97
2018-01-20T20:19:44.724Z,12.27
2018-01-20T20:22:13.153Z,13.77
2018-01-20T20:24:41.442Z,13.27
2018-01-20T20:27:09.682Z,12.53
2018-01-20T20:29:38.084Z,11.17
2018-01-20T20:32:06.333Z,12.03
2018-01-20T20:34:34.688Z,12.60
2018-01-20T20:37:02.925Z,13.47
2018-01-20T20:39:31.218Z,11.73
2018-01-20T20:41:59.342Z,12.80
2018-01-20T20:44:27.624Z,17.70
2018-01-20T20:46:55.881Z,19.03
2018-01-20T20:49:24.147Z,12.17
2018-01-20T20:51:52.413Z,11.93
2018-01-20T20:54:20.674Z,16.10
2018-01-20T20:56:48.929Z,20.30
2018-01-20T20:59:17.192Z,12.93
2018-01-20T21:01:45.457Z,11.60
2018-01-20T21:04:13.742Z,19.40
2018-01-20T21:06:41.991Z,12.40
2018-01-20T21:09:10.233Z,12.90
2018-01-20T21:11:38.500Z,13.60
2018-01-20T21:14:06.761Z,12.07
2018-01-20T21:16:35.021Z,12.50
2018-01-20T21:19:03.297Z,16.37
2018-01-20T21:21:32.453Z,15.53
2018-01-20T21:24:00.697Z,15.53
2018-01-20T21:26:28.991Z,16.80
2018-01-20T21:28:57.233Z,13.73
2018-01-20T21:31:25.492Z,13.70
2018-01-20T21:33:53.926Z,17.10
2018-01-20T21:36:22.197Z,14.27
2018-01-20T21:38:50.438Z,12.20
2018-01-20T21:41:18.682Z,17.53
2018-01-20T21:43:46.935Z,15.67
2018-01-20T21:46:15.211Z,14.80
2018-01-20T21:48:43.469Z,16.37
2018-01-20T21:51:11.798Z,9.80
2018-01-20T21:53:40.822Z,13.33
2018-01-20T21:56:09.118Z,14.67
2018-01-20T21:58:37.365Z,11.80
2018-01-20T22:01:05.630Z,10.77
2018-01-20T22:03:33.889Z,11.73
2018-01-20T22:06:02.169Z,14.10
2018-01-20T22:08:30.474Z,9.90
2018-01-20T22:10:58.724Z,10.77
2018-01-20T22:13:26.978Z,8.10
2018-01-20T22:15:55.232Z,12.70
2018-01-20T22:18:23.485Z,13.47
2018-01-20T22:20:51.753Z,11.37
2018-01-20T22:23:20.055Z,15.30
2018-01-20T22:25:48.368Z,10.60
2018-01-20T22:28:16.646Z,10.73
2018-01-20T22:30:44.953Z,13.97
2018-01-20T22:33:13.225Z,15.53
2018-01-20T22:35:41.492Z,8.80
2018-01-20T22:38:09.772Z,14.53
2018-01-20T22:40:38.101Z,11.77
2018-01-20T22:43:06.413Z,11.20
2018-01-20T22:45:34.666Z,14.80
2018-01-20T22:48:02.602Z,12.43
2018-01-20T22:50:30.919Z,12.33
2018-01-20T22:52:59.173Z,12.10
2018-01-20T22:55:27.443Z,13.93
2018-01-20T22:57:55.713Z,11.50
2018-01-20T23:00:24.047Z,10.50
2018-01-20T23:02:52.334Z,15.40
2018-01-20T23:05:20.589Z,10.40
2018-01-20T23:07:48.854Z,13.90
2018-01-20T23:10:17.178Z,12.70
2018-01-20T23:12:45.474Z,18.27
2018-01-20T23:15:13.737Z,11.70
2018-01-20T23:17:41.998Z,10.80
2018-01-20T23:20:11.814Z,12.03
2018-01-20T23:22:40.069Z,14.13
2018-01-20T23:25:11.080Z,15.80
2018-01-20T23:27:39.355Z,16.27
2018-01-20T23:30:08.243Z,16.70
2018-01-20T23:32:36.534Z,14.07
2018-01-20T23:35:08.778Z,12.13
2018-01-20T23:37:37.026Z,14.90
2018-01-20T23:40:13.462Z,13.03
2018-01-20T23:42:41.396Z,15.20
2018-01-20T23:45:14.786Z,15.43
2018-01-20T23:47:43.090Z,13.40
2018-01-20T23:50:11.365Z,12.53
2018-01-20T23:52:39.925Z,17.13
2018-01-20T23:55:14.365Z,22.10
2018-01-20T23:57:42.689Z,12.43
